Time;durP1;ratioP1;P1;durP2;ratioP2;P2;SDS_P1;SDS_P2;PMS_P1;PMS_P2;Temp;Humidity;BMP_temperature;BMP_pressure;BME280_temperature;BME280_humidity;BME280_pressure;Samples;Min_cycle;Max_cycle;Signal;HPM_P1;HPM_P2
2022/02/19 00:00:30;;;;;;;0.00;0.00;;;;;;;;;;5001104;28;20033;-75
2022/02/19 00:02:56;;;;;;;0.00;0.00;;;;;;;;;;5005160;28;20025;-74
2022/02/19 00:05:24;;;;;;;0.00;0.00;;;;;;;;;;5006829;28;20061;-74
2022/02/19 00:07:55;;;;;;;0.00;0.00;;;;;;;;;;5005116;28;20022;-74
2022/02/19 00:10:22;;;;;;;0.20;0.20;;;;;;;;;;4996981;28;20026;-74
2022/02/19 00:12:48;;;;;;;0.00;0.00;;;;;;;;;;5000574;28;20033;-75
2022/02/19 00:15:14;;;;;;;0.20;0.20;;;;;;;;;;5006816;28;20026;-75
2022/02/19 00:17:40;;;;;;;0.00;0.00;;;;;;;;;;4997385;28;20369;-76
2022/02/19 00:20:12;;;;;;;0.47;0.25;;;;;;;;;;5002983;28;20029;-74
2022/02/19 00:22:38;;;;;;;0.00;0.00;;;;;;;;;;5000999;28;20019;-75
2022/02/19 00:25:10;;;;;;;0.30;0.30;;;;;;;;;;4994652;28;20037;-75
2022/02/19 00:27:36;;;;;;;0.10;0.10;;;;;;;;;;5004900;28;20026;-74
2022/02/19 00:30:03;;;;;;;0.10;0.10;;;;;;;;;;5011074;28;20446;-75
2022/02/19 00:32:29;;;;;;;0.00;0.00;;;;;;;;;;4994363;28;20143;-75
2022/02/19 00:34:55;;;;;;;0.32;0.32;;;;;;;;;;5012019;28;20057;-75
2022/02/19 00:37:21;;;;;;;0.08;0.08;;;;;;;;;;5010235;28;20076;-74
2022/02/19 00:39:50;;;;;;;0.00;0.00;;;;;;;;;;5010702;28;20380;-75
2022/02/19 00:42:16;;;;;;;0.22;0.22;;;;;;;;;;5011690;28;20136;-74
2022/02/19 00:44:42;;;;;;;0.10;0.10;;;;;;;;;;5004579;28;20117;-74
2022/02/19 00:47:08;;;;;;;0.70;0.63;;;;;;;;;;4983655;28;20387;-74
2022/02/19 00:49:34;;;;;;;0.20;0.20;;;;;;;;;;4997210;28;20593;-74
2022/02/19 00:52:03;;;;;;;0.00;0.00;;;;;;;;;;5008439;28;20440;-74
2022/02/19 00:54:29;;;;;;;0.43;0.28;;;;;;;;;;5006451;28;20029;-74
2022/02/19 00:56:55;;;;;;;0.00;0.00;;;;;;;;;;4998258;28;20033;-75
2022/02/19 00:59:20;;;;;;;0.00;0.00;;;;;;;;;;5002448;28;20110;-75
2022/02/19 01:01:47;;;;;;;0.10;0.10;;;;;;;;;;5008833;28;20396;-75
2022/02/19 01:04:12;;;;;;;1.23;0.88;;;;;;;;;;4999387;28;20033;-74
2022/02/19 01:06:38;;;;;;;0.00;0.00;;;;;;;;;;5006122;28;20022;-74
2022/02/19 01:09:05;;;;;;;0.05;0.05;;;;;;;;;;5006564;28;20021;-74
2022/02/19 01:11:31;;;;;;;0.22;0.22;;;;;;;;;;5005483;28;20044;-75
2022/02/19 01:13:57;;;;;;;0.00;0.00;;;;;;;;;;5006968;28;20030;-73
2022/02/19 01:16:22;;;;;;;1.15;0.95;;;;;;;;;;5007498;28;20057;-74
2022/02/19 01:18:49;;;;;;;4.15;1.27;;;;;;;;;;5006461;28;20420;-75
2022/02/19 01:21:16;;;;;;;0.10;0.10;;;;;;;;;;5007602;28;20030;-74
2022/02/19 01:23:42;;;;;;;0.20;0.20;;;;;;;;;;4995672;28;20101;-74
2022/02/19 01:26:08;;;;;;;0.13;0.13;;;;;;;;;;5006651;28;20389;-73
2022/02/19 01:28:34;;;;;;;0.10;0.10;;;;;;;;;;4999390;28;20544;-74
2022/02/19 01:31:00;;;;;;;0.32;0.32;;;;;;;;;;5013953;28;20113;-75
2022/02/19 01:33:26;;;;;;;0.10;0.10;;;;;;;;;;5000534;28;20595;-73
2022/02/19 01:35:52;;;;;;;0.00;0.00;;;;;;;;;;5007645;28;20029;-74
2022/02/19 01:38:18;;;;;;;0.00;0.00;;;;;;;;;;4998450;28;20072;-74
2022/02/19 01:40:45;;;;;;;0.20;0.20;;;;;;;;;;5011458;28;20057;-74
2022/02/19 01:43:14;;;;;;;0.13;0.13;;;;;;;;;;4997699;28;20033;-74
2022/02/19 01:45:47;;;;;;;0.10;0.10;;;;;;;;;;4990500;28;20038;-74
2022/02/19 01:48:16;;;;;;;0.00;0.00;;;;;;;;;;4988744;28;20026;-74
2022/02/19 01:50:42;;;;;;;0.10;0.10;;;;;;;;;;5005848;28;20072;-75
2022/02/19 01:53:08;;;;;;;0.90;0.73;;;;;;;;;;5006224;28;20061;-74
2022/02/19 01:55:34;;;;;;;0.00;0.00;;;;;;;;;;5006153;28;20495;-74
2022/02/19 01:58:02;;;;;;;0.10;0.10;;;;;;;;;;4994649;28;20208;-73
2022/02/19 02:00:28;;;;;;;0.00;0.00;;;;;;;;;;5000272;28;20041;-73
2022/02/19 02:02:56;;;;;;;0.10;0.10;;;;;;;;;;4996784;28;20022;-74
2022/02/19 02:05:22;;;;;;;0.45;0.45;;;;;;;;;;5002066;28;20109;-74
2022/02/19 02:07:48;;;;;;;0.00;0.00;;;;;;;;;;5009737;28;20109;-74
2022/02/19 02:10:14;;;;;;;0.10;0.10;;;;;;;;;;4998270;28;20106;-74
2022/02/19 02:12:40;;;;;;;0.95;0.88;;;;;;;;;;4990725;28;20025;-74
2022/02/19 02:15:22;;;;;;;0.00;0.00;;;;;;;;;;5000580;28;20014;-74
2022/02/19 02:17:51;;;;;;;0.73;0.73;;;;;;;;;;4993830;28;20378;-73
2022/02/19 02:20:17;;;;;;;0.22;0.22;;;;;;;;;;5003935;28;20464;-74
2022/02/19 02:22:43;;;;;;;0.10;0.10;;;;;;;;;;5008333;28;20037;-73
2022/02/19 02:25:11;;;;;;;0.20;0.20;;;;;;;;;;5001152;28;20412;-74
2022/02/19 02:27:37;;;;;;;0.35;0.35;;;;;;;;;;5010240;28;20021;-73
2022/02/19 02:30:04;;;;;;;0.22;0.22;;;;;;;;;;5008746;28;20093;-74
2022/02/19 02:32:30;;;;;;;0.10;0.10;;;;;;;;;;5008329;28;20109;-73
2022/02/19 02:34:56;;;;;;;0.17;0.17;;;;;;;;;;5006156;28;20050;-72
2022/02/19 02:37:22;;;;;;;1.15;0.38;;;;;;;;;;4992665;28;20337;-72
2022/02/19 02:39:48;;;;;;;0.63;0.55;;;;;;;;;;5003647;28;20038;-73
2022/02/19 02:42:17;;;;;;;0.10;0.10;;;;;;;;;;5009013;28;20026;-73
2022/02/19 02:44:43;;;;;;;0.45;0.45;;;;;;;;;;5001355;28;20029;-73
2022/02/19 02:47:09;;;;;;;0.10;0.10;;;;;;;;;;5003064;28;20018;-73
2022/02/19 02:49:36;;;;;;;0.10;0.10;;;;;;;;;;5008648;28;20049;-73
2022/02/19 02:52:02;;;;;;;0.08;0.08;;;;;;;;;;5005910;28;20045;-73
2022/02/19 02:54:28;;;;;;;0.00;0.00;;;;;;;;;;5006818;28;20135;-72
2022/02/19 02:56:54;;;;;;;0.00;0.00;;;;;;;;;;5002523;28;20499;-72
2022/02/19 02:59:20;;;;;;;0.10;0.10;;;;;;;;;;5007363;28;20115;-72
2022/02/19 03:01:46;;;;;;;1.15;0.90;;;;;;;;;;5002020;28;20026;-72
2022/02/19 03:04:12;;;;;;;0.00;0.00;;;;;;;;;;5006616;28;20018;-72
2022/02/19 03:06:38;;;;;;;0.00;0.00;;;;;;;;;;5004540;28;20029;-72
2022/02/19 03:09:04;;;;;;;0.30;0.30;;;;;;;;;;5006843;28;20115;-73
2022/02/19 03:11:30;;;;;;;0.70;0.70;;;;;;;;;;5006651;28;20045;-73
2022/02/19 03:13:56;;;;;;;0.00;0.00;;;;;;;;;;5008597;28;20455;-73
2022/02/19 03:16:22;;;;;;;0.03;0.03;;;;;;;;;;5003674;28;20034;-73
2022/02/19 03:18:48;;;;;;;0.10;0.10;;;;;;;;;;5001646;28;20034;-72
2022/02/19 03:21:14;;;;;;;0.73;0.73;;;;;;;;;;5007909;28;20049;-73
2022/02/19 03:23:39;;;;;;;0.10;0.10;;;;;;;;;;4997441;28;20045;-72
2022/02/19 03:26:07;;;;;;;1.75;0.65;;;;;;;;;;5000115;28;20113;-73
2022/02/19 03:28:33;;;;;;;0.70;0.55;;;;;;;;;;5005117;28;20026;-72
2022/02/19 03:30:59;;;;;;;0.10;0.10;;;;;;;;;;4987270;28;20027;-74
2022/02/19 03:33:25;;;;;;;0.20;0.20;;;;;;;;;;4999427;28;20041;-72
2022/02/19 03:35:51;;;;;;;0.00;0.00;;;;;;;;;;5000985;28;20022;-72
2022/02/19 03:38:17;;;;;;;0.05;0.05;;;;;;;;;;5004067;28;20506;-73
2022/02/19 03:40:43;;;;;;;1.20;0.80;;;;;;;;;;5005030;28;20435;-74
2022/02/19 03:43:09;;;;;;;0.10;0.10;;;;;;;;;;4993337;28;20821;-75
2022/02/19 03:45:37;;;;;;;0.10;0.10;;;;;;;;;;4998107;28;20464;-74
2022/02/19 03:48:05;;;;;;;0.00;0.00;;;;;;;;;;4999433;28;20038;-74
2022/02/19 03:50:31;;;;;;;0.32;0.32;;;;;;;;;;5006546;28;20538;-74
2022/02/19 03:52:57;;;;;;;2.55;1.48;;;;;;;;;;5005088;28;20472;-74
2022/02/19 03:55:23;;;;;;;0.00;0.00;;;;;;;;;;5006247;28;20045;-74
2022/02/19 03:57:49;;;;;;;0.00;0.00;;;;;;;;;;5003604;28;20030;-75
2022/02/19 04:00:15;;;;;;;2.10;1.15;;;;;;;;;;5008058;28;20033;-75
2022/02/19 04:02:43;;;;;;;0.00;0.00;;;;;;;;;;5008240;28;20096;-74
2022/02/19 04:05:12;;;;;;;0.10;0.10;;;;;;;;;;5005681;28;20025;-73
2022/02/19 04:07:39;;;;;;;0.20;0.20;;;;;;;;;;5006780;28;20042;-73
2022/02/19 04:10:06;;;;;;;0.45;0.43;;;;;;;;;;5010606;28;20030;-73
2022/02/19 04:12:32;;;;;;;0.10;0.10;;;;;;;;;;5010743;28;20041;-73
2022/02/19 04:14:58;;;;;;;5.32;0.85;;;;;;;;;;5008365;28;20113;-74
2022/02/19 04:17:24;;;;;;;0.10;0.10;;;;;;;;;;5007377;28;20116;-74
2022/02/19 04:19:52;;;;;;;0.90;0.22;;;;;;;;;;5008564;28;20090;-73
2022/02/19 04:22:18;;;;;;;0.00;0.00;;;;;;;;;;5007099;28;20034;-73
2022/02/19 04:24:45;;;;;;;0.20;0.20;;;;;;;;;;5006381;28;20029;-73
2022/02/19 04:27:11;;;;;;;0.00;0.00;;;;;;;;;;5005929;28;20025;-73
2022/02/19 04:29:37;;;;;;;1.40;1.10;;;;;;;;;;5000692;28;20531;-73
2022/02/19 04:32:03;;;;;;;0.22;0.22;;;;;;;;;;5000584;28;20030;-73
2022/02/19 04:34:29;;;;;;;0.20;0.20;;;;;;;;;;4999779;28;20417;-74
2022/02/19 04:36:55;;;;;;;0.88;0.75;;;;;;;;;;5005068;28;20065;-73
2022/02/19 04:39:21;;;;;;;0.63;0.63;;;;;;;;;;4999077;28;20117;-74
2022/02/19 04:41:47;;;;;;;0.20;0.20;;;;;;;;;;5008521;28;20058;-73
2022/02/19 04:44:13;;;;;;;0.10;0.10;;;;;;;;;;5009261;28;20435;-73
2022/02/19 04:46:39;;;;;;;1.40;1.30;;;;;;;;;;4998873;28;20034;-73
2022/02/19 04:49:05;;;;;;;0.00;0.00;;;;;;;;;;4997729;28;20463;-73
2022/02/19 04:51:31;;;;;;;0.03;0.03;;;;;;;;;;5006137;28;20033;-73
2022/02/19 04:53:57;;;;;;;0.00;0.00;;;;;;;;;;5008584;28;20017;-73
2022/02/19 04:56:23;;;;;;;0.00;0.00;;;;;;;;;;4999341;28;20781;-73
2022/02/19 04:58:49;;;;;;;0.08;0.08;;;;;;;;;;5004573;28;20026;-74
2022/02/19 05:01:15;;;;;;;0.05;0.05;;;;;;;;;;5000099;28;20431;-73
2022/02/19 05:03:41;;;;;;;1.33;0.43;;;;;;;;;;5006973;28;20044;-73
2022/02/19 05:06:07;;;;;;;0.10;0.10;;;;;;;;;;5004284;28;20026;-72
2022/02/19 05:08:33;;;;;;;0.00;0.00;;;;;;;;;;5007649;28;20391;-74
2022/02/19 05:10:59;;;;;;;0.00;0.00;;;;;;;;;;5005603;28;20037;-74
2022/02/19 05:13:25;;;;;;;0.03;0.03;;;;;;;;;;5009174;28;20034;-73
2022/02/19 05:15:51;;;;;;;0.10;0.10;;;;;;;;;;5005422;28;20029;-73
2022/02/19 05:18:17;;;;;;;0.10;0.10;;;;;;;;;;5009390;28;20671;-73
2022/02/19 05:20:44;;;;;;;0.00;0.00;;;;;;;;;;5006162;28;20489;-73
2022/02/19 05:23:10;;;;;;;0.00;0.00;;;;;;;;;;5006694;28;20026;-73
2022/02/19 05:25:40;;;;;;;0.52;0.52;;;;;;;;;;5004166;28;20049;-73
2022/02/19 05:28:06;;;;;;;0.28;0.28;;;;;;;;;;5007612;28;20033;-73
2022/02/19 05:30:32;;;;;;;0.10;0.10;;;;;;;;;;5005255;28;20029;-72
2022/02/19 05:32:58;;;;;;;0.10;0.10;;;;;;;;;;5008616;28;20022;-74
2022/02/19 05:35:24;;;;;;;0.55;0.55;;;;;;;;;;5003128;28;20386;-73
2022/02/19 05:37:50;;;;;;;0.10;0.10;;;;;;;;;;4999578;28;20415;-73
2022/02/19 05:40:16;;;;;;;0.03;0.03;;;;;;;;;;4999299;28;20023;-73
2022/02/19 05:42:42;;;;;;;0.52;0.38;;;;;;;;;;5005104;28;20484;-73
2022/02/19 05:45:08;;;;;;;0.10;0.10;;;;;;;;;;5006501;28;20030;-73
2022/02/19 05:47:34;;;;;;;0.00;0.00;;;;;;;;;;5006040;28;20129;-74
2022/02/19 05:50:00;;;;;;;0.32;0.28;;;;;;;;;;5007888;28;20029;-74
2022/02/19 05:52:26;;;;;;;0.20;0.20;;;;;;;;;;5005813;28;20044;-73
2022/02/19 05:54:55;;;;;;;0.10;0.10;;;;;;;;;;5005436;28;20050;-73
2022/02/19 05:57:21;;;;;;;0.10;0.10;;;;;;;;;;5006337;28;20029;-73
2022/02/19 05:59:47;;;;;;;0.00;0.00;;;;;;;;;;5001208;28;20044;-74
2022/02/19 06:02:13;;;;;;;0.00;0.00;;;;;;;;;;5006665;28;20030;-73
2022/02/19 06:04:39;;;;;;;0.10;0.10;;;;;;;;;;5001217;28;20761;-72
2022/02/19 06:07:05;;;;;;;0.20;0.20;;;;;;;;;;5006240;28;20057;-73
2022/02/19 06:09:31;;;;;;;0.55;0.20;;;;;;;;;;5009071;28;20034;-73
2022/02/19 06:11:57;;;;;;;0.88;0.82;;;;;;;;;;5005881;28;20369;-74
2022/02/19 06:14:23;;;;;;;0.20;0.20;;;;;;;;;;5005855;28;20480;-72
2022/02/19 06:16:49;;;;;;;0.20;0.20;;;;;;;;;;5000358;28;20160;-73
2022/02/19 06:19:15;;;;;;;0.00;0.00;;;;;;;;;;5005820;28;20052;-73
2022/02/19 06:21:41;;;;;;;0.00;0.00;;;;;;;;;;5003691;28;20105;-73
2022/02/19 06:24:07;;;;;;;0.05;0.05;;;;;;;;;;5005013;28;20640;-72
2022/02/19 06:26:33;;;;;;;0.10;0.10;;;;;;;;;;5004253;28;20018;-73
2022/02/19 06:28:59;;;;;;;0.20;0.20;;;;;;;;;;5003464;28;20405;-73
2022/02/19 06:31:25;;;;;;;0.00;0.00;;;;;;;;;;5003383;28;20395;-73
2022/02/19 06:33:51;;;;;;;0.10;0.10;;;;;;;;;;5001337;28;20034;-73
2022/02/19 06:36:18;;;;;;;0.10;0.10;;;;;;;;;;5006058;28;20026;-73
2022/02/19 06:38:44;;;;;;;0.08;0.08;;;;;;;;;;5014263;28;20602;-73
2022/02/19 06:41:10;;;;;;;0.00;0.00;;;;;;;;;;5004068;28;20026;-73
2022/02/19 06:43:37;;;;;;;0.00;0.00;;;;;;;;;;4999376;28;20033;-73
2022/02/19 06:46:03;;;;;;;0.50;0.50;;;;;;;;;;5008155;28;20041;-74
2022/02/19 06:48:29;;;;;;;0.20;0.20;;;;;;;;;;5007498;28;20034;-73
2022/02/19 06:50:56;;;;;;;0.10;0.10;;;;;;;;;;5002848;28;20061;-73
2022/02/19 06:53:22;;;;;;;0.00;0.00;;;;;;;;;;5006120;28;20584;-72
2022/02/19 06:55:48;;;;;;;0.45;0.45;;;;;;;;;;5008353;28;20125;-73
2022/02/19 06:58:14;;;;;;;0.10;0.10;;;;;;;;;;5002586;28;20592;-74
2022/02/19 07:00:40;;;;;;;0.08;0.08;;;;;;;;;;5001192;28;20037;-73
2022/02/19 07:03:06;;;;;;;0.08;0.08;;;;;;;;;;5007771;28;20036;-73
2022/02/19 07:05:32;;;;;;;0.00;0.00;;;;;;;;;;5006622;28;20025;-73
2022/02/19 07:07:58;;;;;;;0.00;0.00;;;;;;;;;;4998500;28;20018;-73
2022/02/19 07:10:24;;;;;;;0.15;0.15;;;;;;;;;;5004369;28;20100;-72
2022/02/19 07:12:50;;;;;;;0.15;0.15;;;;;;;;;;4998249;28;20061;-73
2022/02/19 07:15:20;;;;;;;0.10;0.10;;;;;;;;;;5004882;28;20069;-73
2022/02/19 07:17:55;;;;;;;0.00;0.00;;;;;;;;;;5003327;28;20025;-73
2022/02/19 07:20:22;;;;;;;0.10;0.10;;;;;;;;;;5003088;28;20068;-73
2022/02/19 07:22:48;;;;;;;0.00;0.00;;;;;;;;;;5004876;28;20014;-73
2022/02/19 07:25:14;;;;;;;0.15;0.15;;;;;;;;;;5003788;28;20029;-72
2022/02/19 07:27:41;;;;;;;0.35;0.35;;;;;;;;;;5007992;28;20025;-73
2022/02/19 07:30:08;;;;;;;0.00;0.00;;;;;;;;;;5001835;28;20492;-73
2022/02/19 07:32:35;;;;;;;0.00;0.00;;;;;;;;;;5006561;28;20512;-73
2022/02/19 07:35:01;;;;;;;0.00;0.00;;;;;;;;;;5006404;28;20108;-73
2022/02/19 07:37:27;;;;;;;10.52;1.45;;;;;;;;;;5005825;28;20033;-73
2022/02/19 07:39:53;;;;;;;0.03;0.03;;;;;;;;;;5011098;28;20033;-73
2022/02/19 07:42:19;;;;;;;0.10;0.10;;;;;;;;;;4998498;28;20061;-73
2022/02/19 07:44:45;;;;;;;0.10;0.10;;;;;;;;;;5011119;28;20064;-73
2022/02/19 07:47:10;;;;;;;0.10;0.10;;;;;;;;;;5003727;28;20037;-73
2022/02/19 08:00:35;;;;;;;0.00;0.00;;;;;;;;;;5007240;28;20125;-72
2022/02/19 08:03:01;;;;;;;0.03;0.03;;;;;;;;;;5013538;28;20184;-73
2022/02/19 08:05:26;;;;;;;0.00;0.00;;;;;;;;;;5002839;28;20034;-73
2022/02/19 08:07:52;;;;;;;0.00;0.00;;;;;;;;;;5007575;28;20022;-74
2022/02/19 08:10:18;;;;;;;0.00;0.00;;;;;;;;;;5009274;28;20740;-73
2022/02/19 08:12:44;;;;;;;0.00;0.00;;;;;;;;;;5004244;28;20153;-73
2022/02/19 08:15:10;;;;;;;0.10;0.10;;;;;;;;;;5005656;28;20030;-73
2022/02/19 08:17:36;;;;;;;0.00;0.00;;;;;;;;;;5008597;28;20555;-73
2022/02/19 08:20:03;;;;;;;0.00;0.00;;;;;;;;;;5007759;28;20030;-73
2022/02/19 08:22:29;;;;;;;0.10;0.10;;;;;;;;;;5007591;28;20037;-74
2022/02/19 08:24:55;;;;;;;0.30;0.30;;;;;;;;;;5011354;28;20018;-73
2022/02/19 08:27:21;;;;;;;0.10;0.10;;;;;;;;;;5010791;28;20050;-73
2022/02/19 08:29:46;;;;;;;0.00;0.00;;;;;;;;;;5006958;28;20112;-73
2022/02/19 08:32:12;;;;;;;0.00;0.00;;;;;;;;;;5004882;28;20030;-73
2022/02/19 08:34:39;;;;;;;0.20;0.20;;;;;;;;;;5006011;28;20027;-73
2022/02/19 08:37:05;;;;;;;0.10;0.10;;;;;;;;;;5007053;28;20310;-72
2022/02/19 08:39:31;;;;;;;0.10;0.10;;;;;;;;;;5008502;28;20034;-72
2022/02/19 08:41:57;;;;;;;0.05;0.05;;;;;;;;;;5009465;28;20080;-72
2022/02/19 08:44:23;;;;;;;0.08;0.08;;;;;;;;;;5009308;28;20168;-73
2022/02/19 08:46:49;;;;;;;0.00;0.00;;;;;;;;;;5005426;28;20030;-73
2022/02/19 08:49:15;;;;;;;0.10;0.10;;;;;;;;;;5007021;28;20056;-73
2022/02/19 08:51:41;;;;;;;0.43;0.43;;;;;;;;;;5007714;28;20037;-73
2022/02/19 08:54:09;;;;;;;0.03;0.03;;;;;;;;;;5000372;28;20401;-73
2022/02/19 08:56:36;;;;;;;0.08;0.08;;;;;;;;;;5003850;28;20157;-73
2022/02/19 08:59:02;;;;;;;0.00;0.00;;;;;;;;;;5007494;28;20026;-73
2022/02/19 09:01:29;;;;;;;4.13;1.95;;;;;;;;;;5008059;28;20520;-73
2022/02/19 09:03:55;;;;;;;0.00;0.00;;;;;;;;;;5009284;28;20468;-73
2022/02/19 09:06:22;;;;;;;0.05;0.05;;;;;;;;;;5003058;28;20361;-73
2022/02/19 09:08:48;;;;;;;0.00;0.00;;;;;;;;;;5004838;28;20064;-73
2022/02/19 09:11:15;;;;;;;0.10;0.10;;;;;;;;;;5007709;28;20038;-73
2022/02/19 09:13:41;;;;;;;0.00;0.00;;;;;;;;;;5008580;28;20053;-73
2022/02/19 09:16:07;;;;;;;0.10;0.10;;;;;;;;;;5002127;28;20146;-73
2022/02/19 09:18:33;;;;;;;0.08;0.08;;;;;;;;;;5005330;28;20501;-74
2022/02/19 09:20:58;;;;;;;0.22;0.22;;;;;;;;;;5007896;28;20026;-73
2022/02/19 09:23:24;;;;;;;0.05;0.05;;;;;;;;;;5014873;28;20025;-72
2022/02/19 09:25:50;;;;;;;0.47;0.47;;;;;;;;;;5000863;28;20022;-73
2022/02/19 09:28:20;;;;;;;0.22;0.22;;;;;;;;;;5005898;28;20243;-73
2022/02/19 09:30:49;;;;;;;0.30;0.30;;;;;;;;;;5005749;28;20034;-73
2022/02/19 09:33:15;;;;;;;0.08;0.08;;;;;;;;;;5003555;28;20507;-72
2022/02/19 09:35:41;;;;;;;0.13;0.13;;;;;;;;;;5007015;28;20022;-73
2022/02/19 09:38:07;;;;;;;0.00;0.00;;;;;;;;;;5006584;28;20057;-73
2022/02/19 09:40:33;;;;;;;0.00;0.00;;;;;;;;;;5007225;28;20128;-73
2022/02/19 09:42:59;;;;;;;0.03;0.03;;;;;;;;;;5003462;28;20105;-72
2022/02/19 09:45:29;;;;;;;0.10;0.10;;;;;;;;;;5008594;28;20124;-72
2022/02/19 09:47:56;;;;;;;0.10;0.10;;;;;;;;;;5007629;28;20032;-73
2022/02/19 09:50:25;;;;;;;0.00;0.00;;;;;;;;;;5006277;28;20247;-73
2022/02/19 09:52:51;;;;;;;0.05;0.05;;;;;;;;;;5006845;28;20145;-73
2022/02/19 09:55:17;;;;;;;0.00;0.00;;;;;;;;;;4998985;28;20050;-73
2022/02/19 09:57:43;;;;;;;0.10;0.10;;;;;;;;;;5006320;28;20022;-73
2022/02/19 10:00:09;;;;;;;0.05;0.05;;;;;;;;;;5008099;28;20034;-73
2022/02/19 10:02:35;;;;;;;0.10;0.10;;;;;;;;;;5002922;28;20128;-74
2022/02/19 10:05:14;;;;;;;0.10;0.10;;;;;;;;;;5006367;28;20384;-72
2022/02/19 10:07:41;;;;;;;0.30;0.30;;;;;;;;;;5002968;28;20018;-72
2022/02/19 10:10:07;;;;;;;0.10;0.10;;;;;;;;;;5004824;28;20018;-74
2022/02/19 10:12:46;;;;;;;0.00;0.00;;;;;;;;;;5008091;28;20042;-74
2022/02/19 10:15:13;;;;;;;0.10;0.10;;;;;;;;;;5008319;28;20029;-73
2022/02/19 10:17:39;;;;;;;0.00;0.00;;;;;;;;;;5002039;28;20045;-71
2022/02/19 10:20:06;;;;;;;0.10;0.10;;;;;;;;;;5005863;28;20188;-69
2022/02/19 10:22:34;;;;;;;0.10;0.10;;;;;;;;;;4999771;28;20060;-76
2022/02/19 10:25:01;;;;;;;0.13;0.13;;;;;;;;;;5001571;28;20022;-72
2022/02/19 10:27:56;;;;;;;0.10;0.10;;;;;;;;;;5008382;28;20026;-72
2022/02/19 10:30:23;;;;;;;0.03;0.03;;;;;;;;;;4998202;28;20042;-71
2022/02/19 10:32:49;;;;;;;0.00;0.00;;;;;;;;;;5005357;28;20030;-72
2022/02/19 10:35:16;;;;;;;0.00;0.00;;;;;;;;;;4983450;28;20040;-71
2022/02/19 10:37:43;;;;;;;0.10;0.10;;;;;;;;;;5005459;28;20049;-71
2022/02/19 10:40:25;;;;;;;0.10;0.10;;;;;;;;;;5007942;28;20172;-71
2022/02/19 10:42:53;;;;;;;0.10;0.10;;;;;;;;;;4999967;28;20177;-71
2022/02/19 10:45:19;;;;;;;1.58;1.48;;;;;;;;;;5006930;28;20137;-71
2022/02/19 10:47:45;;;;;;;0.10;0.10;;;;;;;;;;5005232;28;20172;-72
2022/02/19 10:50:12;;;;;;;0.00;0.00;;;;;;;;;;5004679;28;20018;-71
2022/02/19 10:52:40;;;;;;;0.00;0.00;;;;;;;;;;5003154;28;20030;-71
2022/02/19 10:55:10;;;;;;;0.00;0.00;;;;;;;;;;4998237;28;20489;-71
2022/02/19 10:57:38;;;;;;;0.00;0.00;;;;;;;;;;5000331;28;20116;-76
2022/02/19 11:00:14;;;;;;;0.10;0.10;;;;;;;;;;5005116;28;20057;-71
2022/02/19 11:02:41;;;;;;;0.75;0.40;;;;;;;;;;5000396;28;20030;-70
2022/02/19 11:05:08;;;;;;;0.00;0.00;;;;;;;;;;5005855;28;20181;-74
2022/02/19 11:07:36;;;;;;;0.10;0.10;;;;;;;;;;5002628;28;20050;-73
2022/02/19 11:10:02;;;;;;;0.10;0.10;;;;;;;;;;4999540;28;20488;-74
2022/02/19 11:12:28;;;;;;;0.20;0.20;;;;;;;;;;4998779;28;20038;-72
2022/02/19 11:14:54;;;;;;;1.35;0.57;;;;;;;;;;5003972;28;20045;-73
2022/02/19 11:17:20;;;;;;;0.10;0.10;;;;;;;;;;5000024;28;20547;-73
2022/02/19 11:19:46;;;;;;;0.00;0.00;;;;;;;;;;5002303;28;20041;-74
2022/02/19 11:22:12;;;;;;;0.10;0.10;;;;;;;;;;4998187;28;20029;-73
2022/02/19 11:24:40;;;;;;;0.25;0.20;;;;;;;;;;5003025;28;20101;-73
2022/02/19 11:27:06;;;;;;;0.00;0.00;;;;;;;;;;4991528;28;20670;-73
2022/02/19 11:29:33;;;;;;;0.00;0.00;;;;;;;;;;4999321;28;20026;-73
2022/02/19 11:32:02;;;;;;;0.55;0.43;;;;;;;;;;4997265;28;20070;-73
2022/02/19 11:34:28;;;;;;;0.35;0.35;;;;;;;;;;4995074;28;20037;-73
2022/02/19 11:37:13;;;;;;;0.13;0.13;;;;;;;;;;4989535;28;20034;-72
2022/02/19 11:39:58;;;;;;;0.00;0.00;;;;;;;;;;4992214;28;20408;-73
2022/02/19 11:42:36;;;;;;;0.80;0.57;;;;;;;;;;4996450;28;20041;-73
2022/02/19 11:45:19;;;;;;;0.10;0.10;;;;;;;;;;5000075;28;20084;-72
2022/02/19 11:47:45;;;;;;;0.10;0.10;;;;;;;;;;5000918;28;20047;-73
2022/02/19 11:50:25;;;;;;;0.10;0.10;;;;;;;;;;4991398;28;20819;-73
2022/02/19 11:53:12;;;;;;;0.50;0.50;;;;;;;;;;4993080;28;20033;-73
2022/02/19 11:55:38;;;;;;;0.00;0.00;;;;;;;;;;4996642;28;20261;-73
2022/02/19 11:58:11;;;;;;;0.00;0.00;;;;;;;;;;4993859;28;20084;-72
2022/02/19 12:00:56;;;;;;;0.10;0.10;;;;;;;;;;4993434;28;20042;-73
2022/02/19 12:03:36;;;;;;;0.00;0.00;;;;;;;;;;4988456;28;20022;-73
2022/02/19 12:06:05;;;;;;;0.00;0.00;;;;;;;;;;4990539;28;20466;-73
2022/02/19 12:08:49;;;;;;;0.10;0.10;;;;;;;;;;5000314;28;20033;-79
2022/02/19 12:11:22;;;;;;;0.00;0.00;;;;;;;;;;4994902;28;20030;-72
2022/02/19 12:13:49;;;;;;;0.73;0.73;;;;;;;;;;4998627;28;20030;-73
2022/02/19 12:16:39;;;;;;;0.05;0.05;;;;;;;;;;4996085;28;20161;-73
2022/02/19 12:19:06;;;;;;;0.00;0.00;;;;;;;;;;5006130;28;20021;-69
2022/02/19 12:21:36;;;;;;;0.00;0.00;;;;;;;;;;5009403;28;20049;-72
2022/02/19 12:24:09;;;;;;;0.20;0.20;;;;;;;;;;5004252;28;20089;-70
2022/02/19 12:26:59;;;;;;;0.00;0.00;;;;;;;;;;5005138;28;20550;-72
2022/02/19 12:29:29;;;;;;;0.30;0.30;;;;;;;;;;4998024;28;20460;-75
2022/02/19 12:32:04;;;;;;;0.22;0.22;;;;;;;;;;5002821;28;20076;-75
2022/02/19 12:34:38;;;;;;;0.10;0.10;;;;;;;;;;5007538;28;20056;-73
2022/02/19 12:37:12;;;;;;;0.00;0.00;;;;;;;;;;5007935;28;20124;-73
2022/02/19 12:39:42;;;;;;;0.17;0.17;;;;;;;;;;5003125;28;20042;-74
2022/02/19 12:42:10;;;;;;;0.00;0.00;;;;;;;;;;5001952;28;20458;-72
2022/02/19 12:44:36;;;;;;;0.10;0.10;;;;;;;;;;5011164;28;20061;-74
2022/02/19 12:47:03;;;;;;;0.63;0.63;;;;;;;;;;5012687;28;20661;-74
2022/02/19 12:49:29;;;;;;;0.00;0.00;;;;;;;;;;5001199;28;20040;-73
2022/02/19 12:51:55;;;;;;;1.08;0.70;;;;;;;;;;5006987;28;20030;-75
2022/02/19 12:54:34;;;;;;;1.95;1.77;;;;;;;;;;5005867;28;20031;-74
2022/02/19 12:57:00;;;;;;;1.60;0.50;;;;;;;;;;5008439;28;20052;-75
2022/02/19 12:59:30;;;;;;;0.98;0.75;;;;;;;;;;5006587;28;20037;-77
2022/02/19 13:01:56;;;;;;;0.00;0.00;;;;;;;;;;5006315;28;20029;-78
2022/02/19 13:04:33;;;;;;;0.40;0.40;;;;;;;;;;5008675;28;20025;-75
2022/02/19 13:06:59;;;;;;;0.00;0.00;;;;;;;;;;5004042;28;20105;-79
2022/02/19 13:09:27;;;;;;;0.03;0.03;;;;;;;;;;5007087;28;20041;-75
2022/02/19 13:11:54;;;;;;;0.00;0.00;;;;;;;;;;5007326;28;20050;-72
2022/02/19 13:14:20;;;;;;;0.00;0.00;;;;;;;;;;5000230;28;20040;-74
2022/02/19 13:16:59;;;;;;;0.00;0.00;;;;;;;;;;4998616;28;20034;-73
2022/02/19 13:19:26;;;;;;;0.00;0.00;;;;;;;;;;5004379;28;20252;-71
2022/02/19 13:22:09;;;;;;;0.10;0.10;;;;;;;;;;5000766;28;20022;-73
2022/02/19 13:24:39;;;;;;;0.20;0.20;;;;;;;;;;4997271;28;20023;-73
2022/02/19 13:27:11;;;;;;;0.00;0.00;;;;;;;;;;5004874;28;20484;-71
2022/02/19 13:29:37;;;;;;;0.00;0.00;;;;;;;;;;5005237;28;20053;-72
2022/02/19 13:32:06;;;;;;;0.00;0.00;;;;;;;;;;4999495;28;20225;-74
2022/02/19 13:34:38;;;;;;;0.00;0.00;;;;;;;;;;5008225;28;20037;-73
2022/02/19 13:37:04;;;;;;;0.00;0.00;;;;;;;;;;5001247;28;20017;-74
2022/02/19 13:39:34;;;;;;;0.00;0.00;;;;;;;;;;5010195;28;20032;-73
2022/02/19 13:42:00;;;;;;;0.00;0.00;;;;;;;;;;5004298;28;20037;-72
2022/02/19 13:44:28;;;;;;;0.00;0.00;;;;;;;;;;5005454;28;20411;-74
2022/02/19 13:46:55;;;;;;;0.00;0.00;;;;;;;;;;5000328;28;20022;-76
2022/02/19 13:49:22;;;;;;;2.17;0.52;;;;;;;;;;5002422;28;20022;-75
2022/02/19 13:51:48;;;;;;;0.52;0.52;;;;;;;;;;5004526;28;20487;-74
2022/02/19 13:54:18;;;;;;;0.10;0.10;;;;;;;;;;5003679;28;20022;-76
2022/02/19 13:56:45;;;;;;;0.07;0.07;;;;;;;;;;4983876;28;20120;-73
2022/02/19 13:59:18;;;;;;;0.85;0.63;;;;;;;;;;4977307;28;20038;-74
2022/02/19 14:01:45;;;;;;;5.53;0.63;;;;;;;;;;4980254;28;20492;-74
2022/02/19 14:04:11;;;;;;;0.00;0.00;;;;;;;;;;4978528;28;20765;-75
2022/02/19 14:06:44;;;;;;;0.30;0.30;;;;;;;;;;4977808;28;20030;-76
2022/02/19 14:09:17;;;;;;;0.00;0.00;;;;;;;;;;4984704;28;20031;-71
2022/02/19 14:11:50;;;;;;;1.40;0.20;;;;;;;;;;4976540;28;20378;-72
2022/02/19 14:14:22;;;;;;;0.20;0.20;;;;;;;;;;4973628;28;20715;-75
2022/02/19 14:17:01;;;;;;;0.00;0.00;;;;;;;;;;4975111;28;20035;-84
2022/02/19 14:19:27;;;;;;;0.20;0.20;;;;;;;;;;4983139;28;20030;-76
2022/02/19 14:22:06;;;;;;;0.10;0.10;;;;;;;;;;4978873;28;20057;-74
2022/02/19 14:24:32;;;;;;;0.20;0.20;;;;;;;;;;4986811;28;20101;-76
2022/02/19 14:27:11;;;;;;;0.13;0.13;;;;;;;;;;4979634;28;20033;-74
2022/02/19 14:29:37;;;;;;;1.65;0.63;;;;;;;;;;4988875;28;20109;-75
2022/02/19 14:32:06;;;;;;;0.15;0.15;;;;;;;;;;4986398;28;20090;-74
2022/02/19 14:34:32;;;;;;;0.10;0.10;;;;;;;;;;4981992;28;20038;-74
2022/02/19 14:36:58;;;;;;;0.00;0.00;;;;;;;;;;4986779;28;20029;-75
2022/02/19 14:39:24;;;;;;;0.00;0.00;;;;;;;;;;4984823;28;20061;-76
2022/02/19 14:41:50;;;;;;;0.35;0.35;;;;;;;;;;4984425;28;20040;-77
2022/02/19 14:44:16;;;;;;;0.00;0.00;;;;;;;;;;4987165;28;20114;-75
2022/02/19 14:46:42;;;;;;;0.00;0.00;;;;;;;;;;4988013;28;20389;-78
2022/02/19 14:49:08;;;;;;;0.00;0.00;;;;;;;;;;4987949;28;20026;-77
2022/02/19 14:51:35;;;;;;;0.22;0.20;;;;;;;;;;4980949;28;20040;-72
2022/02/19 14:54:01;;;;;;;0.03;0.03;;;;;;;;;;4982190;28;20133;-72
2022/02/19 14:56:26;;;;;;;0.55;0.55;;;;;;;;;;4984109;28;20616;-70